Time;durP1;ratioP1;P1;durP2;ratioP2;P2;SDS_P1;SDS_P2;PMS_P1;PMS_P2;Temp;Humidity;BMP_temperature;BMP_pressure;BME280_temperature;BME280_humidity;BME280_pressure;Samples;Min_cycle;Max_cycle;Signal;HPM_P1;HPM_P2
2022/07/23 00:01:47;;;;;;;5.47;2.88;;;;;;;20.79;53.89;101787.88;5005792;28;124472;-63
2022/07/23 00:04:14;;;;;;;6.78;2.88;;;;;;;20.77;53.89;101790.66;4987913;28;119251;-63
2022/07/23 00:06:41;;;;;;;5.97;3.53;;;;;;;20.74;54.04;101790.06;5005593;28;119085;-64
2022/07/23 00:09:09;;;;;;;5.63;2.65;;;;;;;20.69;53.90;101790.38;5004725;28;124530;-64
2022/07/23 00:11:36;;;;;;;8.15;3.83;;;;;;;20.64;54.03;101789.84;4987440;28;125607;-64
2022/07/23 00:14:03;;;;;;;6.30;3.10;;;;;;;20.59;53.97;101792.00;5007013;28;119783;-64
2022/07/23 00:16:30;;;;;;;6.03;3.20;;;;;;;20.54;54.07;101788.78;5007423;28;118598;-64
2022/07/23 00:19:01;;;;;;;4.83;2.90;;;;;;;20.51;54.11;101786.28;4968455;28;1129779;-61
2022/07/23 00:21:29;;;;;;;4.25;3.03;;;;;;;20.48;54.05;101779.31;5006462;28;123724;-62
2022/07/23 00:23:56;;;;;;;5.07;3.00;;;;;;;20.45;54.23;101781.34;5006524;28;119184;-62
2022/07/23 00:26:23;;;;;;;6.68;3.00;;;;;;;20.40;54.13;101774.47;5006862;28;118652;-62
2022/07/23 00:28:50;;;;;;;5.57;3.33;;;;;;;20.37;54.25;101782.75;5007229;28;123829;-62
2022/07/23 00:31:17;;;;;;;8.88;3.05;;;;;;;20.35;54.35;101789.22;4990887;28;122827;-62
2022/07/23 00:33:45;;;;;;;5.10;3.00;;;;;;;20.30;54.08;101778.78;4988477;28;119515;-62
2022/07/23 00:36:12;;;;;;;4.55;2.97;;;;;;;20.26;54.25;101779.97;4990549;28;119662;-62
2022/07/23 00:38:39;;;;;;;4.65;2.80;;;;;;;20.19;54.43;101773.31;4988510;28;124226;-62
2022/07/23 00:41:06;;;;;;;4.03;2.78;;;;;;;20.16;54.46;101776.22;5003097;28;123132;-62
2022/07/23 00:43:34;;;;;;;5.55;2.65;;;;;;;20.13;54.51;101773.75;5006199;28;119423;-62
2022/07/23 00:46:01;;;;;;;4.90;2.88;;;;;;;20.10;54.46;101774.84;5008767;28;119096;-62
2022/07/23 00:48:28;;;;;;;4.82;3.10;;;;;;;20.06;54.54;101772.47;5005750;28;124137;-62
2022/07/23 00:50:56;;;;;;;4.45;3.28;;;;;;;20.03;54.75;101779.78;5009202;28;125144;-62
2022/07/23 00:53:23;;;;;;;3.42;2.67;;;;;;;20.00;54.70;101774.63;4990553;28;118270;-62
2022/07/23 00:55:53;;;;;;;3.90;2.97;;;;;;;19.97;54.76;101773.97;5007973;28;119637;-66
2022/07/23 00:58:20;;;;;;;4.40;2.80;;;;;;;19.94;54.84;101780.41;4989714;28;123126;-66
2022/07/23 01:00:47;;;;;;;4.50;3.00;;;;;;;19.89;54.76;101782.59;4990113;28;123435;-66
2022/07/23 01:03:15;;;;;;;4.68;2.85;;;;;;;19.88;54.77;101780.84;4988250;28;120037;-66
2022/07/23 01:05:42;;;;;;;4.70;3.08;;;;;;;19.87;54.97;101784.50;4990638;28;118046;-67
2022/07/23 01:08:09;;;;;;;4.57;2.83;;;;;;;19.86;54.84;101782.78;5004265;28;124085;-67
2022/07/23 01:10:36;;;;;;;3.90;2.60;;;;;;;19.83;54.75;101783.00;5008340;28;124001;-67
2022/07/23 01:13:07;;;;;;;5.78;3.10;;;;;;;19.80;54.90;101777.84;4990501;28;118753;-66
2022/07/23 01:15:35;;;;;;;4.18;3.00;;;;;;;19.74;54.88;101772.88;5006157;28;119425;-67
2022/07/23 01:18:04;;;;;;;4.00;2.97;;;;;;;19.70;55.04;101782.09;5005208;28;124420;-66
2022/07/23 01:20:35;;;;;;;4.00;2.97;;;;;;;19.65;54.92;101780.56;4990189;28;123310;-67
2022/07/23 01:23:02;;;;;;;3.80;2.85;;;;;;;19.63;55.20;101782.50;5006157;28;120361;-66
2022/07/23 01:25:30;;;;;;;4.47;2.92;;;;;;;19.60;55.11;101771.97;5007917;28;120589;-66
2022/07/23 01:28:00;;;;;;;5.28;3.30;;;;;;;19.57;55.17;101766.81;4989064;28;123650;-66
2022/07/23 01:30:27;;;;;;;5.80;3.08;;;;;;;19.55;55.20;101763.38;4984659;28;123003;-67
2022/07/23 01:32:56;;;;;;;4.63;3.15;;;;;;;19.52;55.26;101763.56;4990607;28;118519;-66
2022/07/23 01:35:23;;;;;;;4.85;3.45;;;;;;;19.48;55.35;101762.06;4989274;28;118226;-67
2022/07/23 01:37:54;;;;;;;5.65;3.33;;;;;;;19.45;55.40;101767.63;4988235;28;123814;-66
2022/07/23 01:40:22;;;;;;;6.65;3.67;;;;;;;19.43;55.41;101764.19;4989142;28;122111;-67
2022/07/23 01:42:51;;;;;;;4.53;3.38;;;;;;;19.38;55.31;101766.31;4990092;28;119858;-66
2022/07/23 01:45:19;;;;;;;5.65;3.05;;;;;;;19.34;55.29;101771.03;4982658;28;118061;-67
2022/07/23 01:47:50;;;;;;;5.57;3.47;;;;;;;19.27;55.44;101769.75;4984269;28;123642;-68
2022/07/23 01:50:18;;;;;;;4.30;3.50;;;;;;;19.22;55.44;101762.00;4988899;28;122977;-68
2022/07/23 01:53:03;;;;;;;5.82;3.38;;;;;;;19.18;55.46;101760.47;5004334;28;120089;-68
2022/07/23 01:55:30;;;;;;;4.80;3.15;;;;;;;19.15;55.50;101757.13;4986530;28;118119;-68
2022/07/23 01:57:58;;;;;;;5.70;3.50;;;;;;;19.11;55.49;101759.16;4988886;28;123172;-68
2022/07/23 02:00:28;;;;;;;4.47;3.08;;;;;;;19.08;55.52;101759.38;4989208;28;123365;-68
2022/07/23 02:02:58;;;;;;;4.55;3.10;;;;;;;19.05;55.67;101762.25;4989540;28;118846;-68
2022/07/23 02:05:25;;;;;;;4.38;3.20;;;;;;;19.01;55.77;101768.78;4987027;28;119459;-68
2022/07/23 02:07:54;;;;;;;4.70;3.33;;;;;;;18.97;55.68;101773.50;4983137;28;122992;-68
2022/07/23 02:10:22;;;;;;;7.35;3.63;;;;;;;18.95;55.83;101766.50;4989406;28;123385;-68
2022/07/23 02:12:49;;;;;;;5.25;3.45;;;;;;;18.92;55.83;101764.03;5000161;28;119989;-67
2022/07/23 02:15:16;;;;;;;5.70;3.25;;;;;;;18.90;55.98;101755.22;4988484;28;119057;-68
2022/07/23 02:17:43;;;;;;;5.07;3.53;;;;;;;18.86;55.97;101755.41;4988349;28;123354;-68
2022/07/23 02:20:11;;;;;;;4.57;3.90;;;;;;;18.82;56.42;101753.91;4987547;28;124142;-68
2022/07/23 02:22:38;;;;;;;4.22;3.10;;;;;;;18.80;56.15;101755.81;4987191;28;118455;-68
2022/07/23 02:25:08;;;;;;;4.97;3.10;;;;;;;18.78;56.21;101757.72;4989092;28;118520;-68
2022/07/23 02:27:36;;;;;;;5.65;3.35;;;;;;;18.76;56.22;101753.38;5005771;28;125139;-68
2022/07/23 02:30:06;;;;;;;5.13;3.38;;;;;;;18.75;56.22;101757.91;4989592;28;122989;-68
2022/07/23 02:32:35;;;;;;;5.00;3.30;;;;;;;18.72;56.06;101752.72;4984853;28;119365;-68
2022/07/23 02:35:03;;;;;;;6.45;3.20;;;;;;;18.68;56.12;101756.56;4986520;28;118054;-68
2022/07/23 02:37:33;;;;;;;4.97;3.05;;;;;;;18.65;56.51;101760.31;4988418;28;123262;-68
2022/07/23 02:40:00;;;;;;;3.72;3.05;;;;;;;18.63;56.44;101758.72;4988693;28;123003;-68
2022/07/23 02:42:28;;;;;;;4.03;3.25;;;;;;;18.61;56.40;101755.25;4986728;28;118773;-68
2022/07/23 02:44:55;;;;;;;8.60;3.30;;;;;;;18.58;56.57;101755.44;5007003;28;119260;-68
2022/07/23 02:47:22;;;;;;;4.70;3.25;;;;;;;18.56;56.54;101758.22;4972209;28;123088;-68
2022/07/23 02:49:49;;;;;;;5.95;3.10;;;;;;;18.54;56.53;101760.16;4987665;28;123131;-68
2022/07/23 02:52:17;;;;;;;9.82;3.38;;;;;;;18.52;56.46;101748.66;4986245;28;118433;-68
2022/07/23 02:54:44;;;;;;;5.03;3.60;;;;;;;18.49;56.69;101752.38;4989486;28;118667;-68
2022/07/23 02:57:15;;;;;;;4.80;3.15;;;;;;;18.48;56.34;101756.03;4989107;28;123173;-68
2022/07/23 02:59:42;;;;;;;5.40;3.50;;;;;;;18.46;56.59;101757.97;4986532;28;123527;-68
2022/07/23 03:02:09;;;;;;;4.38;3.35;;;;;;;18.44;56.56;101765.25;4986532;28;121455;-68
2022/07/23 03:04:37;;;;;;;4.35;3.20;;;;;;;18.42;56.50;101760.91;4988786;28;119748;-68
2022/07/23 03:07:05;;;;;;;7.78;3.53;;;;;;;18.39;56.68;101756.63;4988949;28;123292;-68
2022/07/23 03:09:32;;;;;;;4.68;2.90;;;;;;;18.38;56.49;101759.41;5005033;28;124278;-68
2022/07/23 03:11:59;;;;;;;4.60;3.28;;;;;;;18.34;56.54;101772.13;5003786;28;119626;-68
2022/07/23 03:14:27;;;;;;;4.78;3.42;;;;;;;18.29;56.57;101771.59;4985932;28;118768;-68
2022/07/23 03:16:55;;;;;;;5.05;3.42;;;;;;;18.25;56.71;101770.91;5004754;28;124272;-68
2022/07/23 03:19:22;;;;;;;4.10;3.33;;;;;;;18.20;56.68;101777.53;4987338;28;124017;-68
2022/07/23 03:21:50;;;;;;;4.28;3.53;;;;;;;18.16;56.40;101781.31;4988779;28;118710;-68
2022/07/23 03:24:17;;;;;;;5.15;3.65;;;;;;;18.11;56.50;101773.59;5004482;28;119306;-68
2022/07/23 03:26:44;;;;;;;6.80;3.50;;;;;;;18.06;56.85;101775.69;5006096;28;124847;-63
2022/07/23 03:29:13;;;;;;;5.15;3.60;;;;;;;18.01;56.90;101781.34;4987427;28;123023;-63
2022/07/23 03:31:41;;;;;;;4.78;3.47;;;;;;;17.99;56.93;101780.56;4988839;28;118459;-62
2022/07/23 03:34:09;;;;;;;5.03;3.22;;;;;;;17.96;57.04;101788.78;5003929;28;118304;-63
2022/07/23 03:36:36;;;;;;;5.13;3.28;;;;;;;17.93;57.04;101791.66;5007404;28;123689;-62
2022/07/23 03:39:05;;;;;;;5.75;3.40;;;;;;;17.92;57.00;101784.56;4989806;28;123778;-63
2022/07/23 03:41:32;;;;;;;5.82;3.80;;;;;;;17.90;56.76;101781.13;4991119;28;118660;-63
2022/07/23 03:43:59;;;;;;;4.55;3.28;;;;;;;17.88;57.00;101783.91;4991169;28;118124;-64
2022/07/23 03:46:26;;;;;;;3.78;3.28;;;;;;;17.87;57.14;101776.81;4973579;28;123272;-64
2022/07/23 03:48:54;;;;;;;5.15;3.60;;;;;;;17.87;57.03;101781.31;4987622;28;123623;-68
2022/07/23 03:51:25;;;;;;;5.70;3.55;;;;;;;17.86;57.13;101784.97;4990243;28;119674;-67
2022/07/23 03:53:52;;;;;;;4.45;3.58;;;;;;;17.84;57.16;101787.72;4991267;28;118994;-63
2022/07/23 03:56:19;;;;;;;5.35;3.70;;;;;;;17.83;57.19;101785.09;4990357;28;123004;-63
2022/07/23 03:58:47;;;;;;;5.00;3.70;;;;;;;17.80;57.17;101774.56;5005921;28;123882;-63
2022/07/23 04:01:15;;;;;;;5.35;3.53;;;;;;;17.80;57.24;101774.56;4989397;28;119046;-63
2022/07/23 04:03:42;;;;;;;5.85;3.80;;;;;;;17.78;57.31;101779.16;5006952;28;119369;-63
2022/07/23 04:06:10;;;;;;;7.35;3.95;;;;;;;17.74;57.12;101781.16;5005087;28;123941;-63
2022/07/23 04:08:38;;;;;;;5.70;3.40;;;;;;;17.70;57.41;101775.09;4990855;28;123190;-63
2022/07/23 04:11:05;;;;;;;4.70;3.70;;;;;;;17.67;57.55;101780.66;4991028;28;118270;-64
2022/07/23 04:13:32;;;;;;;5.20;3.42;;;;;;;17.64;57.47;101786.19;4991672;28;118166;-63
2022/07/23 04:16:01;;;;;;;9.27;3.50;;;;;;;17.62;57.51;101788.13;4990508;28;123700;-63
2022/07/23 04:18:28;;;;;;;5.57;3.83;;;;;;;17.61;57.73;101786.41;4986323;28;122084;-63
2022/07/23 04:21:16;;;;;;;7.28;3.60;;;;;;;17.60;57.58;101790.03;5008949;28;119529;-66
2022/07/23 04:23:44;;;;;;;5.50;4.20;;;;;;;17.60;57.96;101784.66;4988560;28;118870;-67
2022/07/23 04:26:13;;;;;;;6.25;3.78;;;;;;;17.60;58.11;101784.66;4974773;28;123643;-68
2022/07/23 04:28:45;;;;;;;5.03;3.90;;;;;;;17.62;57.90;101782.75;4987022;28;122665;-68
2022/07/23 04:31:12;;;;;;;6.45;4.05;;;;;;;17.62;58.09;101788.13;4990911;28;118204;-68
2022/07/23 04:33:40;;;;;;;5.65;4.07;;;;;;;17.63;58.23;101787.19;4989965;28;118096;-68
2022/07/23 04:36:08;;;;;;;5.15;3.95;;;;;;;17.63;58.22;101789.84;4990818;28;124150;-67
2022/07/23 04:38:35;;;;;;;6.30;4.82;;;;;;;17.64;58.25;101796.91;5006732;28;124812;-67
2022/07/23 04:41:03;;;;;;;7.90;4.43;;;;;;;17.65;58.39;101787.06;4990339;28;121050;-63
2022/07/23 04:43:31;;;;;;;5.57;4.40;;;;;;;17.67;58.46;101799.44;4984805;28;119405;-63
2022/07/23 04:45:58;;;;;;;5.85;4.45;;;;;;;17.69;58.76;101800.19;4990089;28;124416;-63
2022/07/23 04:48:27;;;;;;;7.00;5.00;;;;;;;17.71;58.69;101798.28;4990043;28;123635;-63
2022/07/23 04:51:04;;;;;;;6.80;5.07;;;;;;;17.75;58.85;101809.69;4990793;28;121184;-63
2022/07/23 04:53:32;;;;;;;8.20;5.18;;;;;;;17.79;59.06;101800.50;4990921;28;118804;-64
2022/07/23 04:56:00;;;;;;;6.13;4.50;;;;;;;17.88;59.45;101809.84;5003288;28;124040;-63
2022/07/23 04:58:29;;;;;;;7.07;4.97;;;;;;;17.99;59.92;101818.09;4987274;28;121994;-63
2022/07/23 05:00:57;;;;;;;7.82;4.75;;;;;;;18.09;59.97;101813.88;4990495;28;119504;-64
2022/07/23 05:03:27;;;;;;;7.07;4.93;;;;;;;18.19;59.68;101808.81;4990768;28;118345;-64
2022/07/23 05:05:54;;;;;;;6.32;4.68;;;;;;;18.26;59.45;101809.31;5006771;28;124124;-63
2022/07/23 05:08:22;;;;;;;9.98;5.13;;;;;;;18.34;59.35;101811.50;5005326;28;123567;-63
2022/07/23 05:10:52;;;;;;;7.75;4.80;;;;;;;18.40;59.45;101812.00;4990418;28;118333;-63
2022/07/23 05:13:20;;;;;;;7.57;4.88;;;;;;;18.47;59.32;101807.97;4991266;28;118185;-63
2022/07/23 05:15:51;;;;;;;6.88;5.22;;;;;;;18.54;59.22;101818.31;4989715;28;123647;-63
2022/07/23 05:18:18;;;;;;;9.88;5.65;;;;;;;18.59;59.27;101816.19;5005073;28;124682;-63
2022/07/23 05:20:46;;;;;;;5.90;5.05;;;;;;;18.65;59.25;101826.56;4990127;28;118504;-63
2022/07/23 05:23:17;;;;;;;7.10;4.85;;;;;;;18.69;59.37;101817.34;4987936;28;118211;-63
2022/07/23 05:25:44;;;;;;;8.05;5.50;;;;;;;18.74;59.38;101825.97;5005697;28;123625;-63
2022/07/23 05:28:11;;;;;;;8.32;5.35;;;;;;;18.78;59.42;101822.13;5005228;28;123943;-63
2022/07/23 05:30:39;;;;;;;7.80;5.70;;;;;;;18.81;59.43;101821.94;4988984;28;119799;-63
2022/07/23 05:33:09;;;;;;;7.97;5.53;;;;;;;18.85;59.32;101834.22;4989983;28;118157;-63
2022/07/23 05:35:37;;;;;;;10.65;5.78;;;;;;;18.90;59.58;101825.00;4989771;28;123546;-63
2022/07/23 05:38:22;;;;;;;10.15;6.00;;;;;;;18.96;59.26;101838.03;4989518;28;122931;-63
2022/07/23 05:40:50;;;;;;;8.20;5.60;;;;;;;19.00;59.38;101832.34;4987772;28;118600;-63
2022/07/23 05:43:18;;;;;;;9.13;6.07;;;;;;;19.05;59.37;101840.13;4990212;28;118013;-64
2022/07/23 05:45:45;;;;;;;8.32;5.85;;;;;;;19.10;59.29;101843.38;4986870;28;123785;-64
2022/07/23 05:48:12;;;;;;;8.50;6.07;;;;;;;19.15;59.43;101846.59;4988612;28;123507;-64
2022/07/23 05:50:56;;;;;;;8.63;6.38;;;;;;;19.22;59.36;101856.00;4989298;28;118380;-67
2022/07/23 05:53:31;;;;;;;9.18;6.20;;;;;;;19.28;59.17;101851.19;4988019;28;121406;-67
2022/07/23 05:56:01;;;;;;;7.40;5.47;;;;;;;19.33;59.08;101855.28;4989604;28;123476;-67
2022/07/23 05:58:30;;;;;;;8.77;5.68;;;;;;;19.38;59.06;101852.28;4986802;28;122869;-68
2022/07/23 06:00:58;;;;;;;10.82;6.35;;;;;;;19.43;58.83;101855.53;4989651;28;118765;-66
2022/07/23 06:03:27;;;;;;;10.18;6.10;;;;;;;19.51;59.09;101853.19;4990382;28;118178;-66
2022/07/23 06:05:55;;;;;;;8.70;5.63;;;;;;;19.57;59.08;101850.13;4984357;28;123234;-66
2022/07/23 06:08:22;;;;;;;8.50;6.03;;;;;;;19.63;59.00;101857.75;5005622;28;123836;-66
2022/07/23 06:10:49;;;;;;;8.20;5.43;;;;;;;19.71;58.73;101868.00;4986355;28;118669;-67
2022/07/23 06:13:18;;;;;;;7.18;5.03;;;;;;;19.79;58.38;101862.13;5005016;28;119002;-67
2022/07/23 06:15:45;;;;;;;10.02;4.95;;;;;;;19.87;58.49;101858.91;4989478;28;123319;-67
2022/07/23 06:18:13;;;;;;;8.13;5.35;;;;;;;19.94;58.53;101861.06;5005029;28;124063;-67
2022/07/23 06:20:40;;;;;;;8.38;5.47;;;;;;;20.02;58.29;101864.13;4988598;28;119201;-67
2022/07/23 06:23:08;;;;;;;9.23;4.97;;;;;;;20.11;58.11;101867.13;5008272;28;119853;-67
2022/07/23 06:25:35;;;;;;;6.97;5.38;;;;;;;20.19;58.22;101870.16;4986706;28;124523;-67
2022/07/23 06:28:04;;;;;;;7.63;5.00;;;;;;;20.26;58.25;101876.81;4985214;28;124074;-67
2022/07/23 06:30:32;;;;;;;8.00;5.40;;;;;;;20.34;58.13;101869.09;4984791;28;119049;-67
2022/07/23 06:33:00;;;;;;;8.60;4.60;;;;;;;20.43;58.32;101868.44;5006232;28;119655;-67
2022/07/23 06:35:28;;;;;;;6.13;4.13;;;;;;;20.54;58.21;101869.50;4987334;28;123633;-67
2022/07/23 06:37:56;;;;;;;8.07;4.97;;;;;;;20.63;58.00;101863.50;4988456;28;124832;-67
2022/07/23 06:40:23;;;;;;;5.70;4.25;;;;;;;20.74;57.98;101865.44;4988898;28;118545;-67
2022/07/23 06:42:51;;;;;;;5.88;3.97;;;;;;;20.86;57.98;101866.38;4988234;28;118414;-67
2022/07/23 06:45:22;;;;;;;7.60;3.90;;;;;;;20.99;57.27;101869.91;4973503;28;123836;-67
2022/07/23 06:47:49;;;;;;;7.32;4.20;;;;;;;21.10;57.33;101878.06;4986103;28;123388;-67
2022/07/23 06:50:18;;;;;;;5.80;3.72;;;;;;;21.20;56.86;101876.41;4989143;28;119764;-67
2022/07/23 06:52:45;;;;;;;7.15;3.95;;;;;;;21.35;56.79;101876.25;5004529;28;119426;-67
2022/07/23 06:55:12;;;;;;;6.72;4.18;;;;;;;21.46;56.73;101873.66;4989139;28;123046;-63
2022/07/23 06:57:41;;;;;;;7.03;4.25;;;;;;;21.60;56.20;101875.28;4986252;28;124472;-63
2022/07/23 07:00:08;;;;;;;5.90;3.88;;;;;;;21.73;56.31;101880.63;5006440;28;119779;-63
2022/07/23 07:02:36;;;;;;;4.78;3.60;;;;;;;21.88;56.44;101884.00;5005133;28;119381;-63
2022/07/23 07:05:04;;;;;;;4.25;3.47;;;;;;;22.04;56.09;101883.66;4986638;28;123380;-63
2022/07/23 07:07:34;;;;;;;5.15;3.45;;;;;;;22.17;55.46;101879.06;5004570;28;124226;-63
2022/07/23 07:10:03;;;;;;;4.85;3.00;;;;;;;22.33;55.00;101890.38;5008736;28;120625;-62
2022/07/23 07:12:30;;;;;;;5.30;3.05;;;;;;;22.44;54.34;101869.81;5004902;28;120050;-62
2022/07/23 07:14:57;;;;;;;4.43;3.05;;;;;;;22.53;53.80;101863.69;4992384;28;123247;-63
2022/07/23 07:17:24;;;;;;;5.53;2.97;;;;;;;22.62;53.72;101862.94;4992176;28;124167;-62
2022/07/23 07:19:51;;;;;;;5.90;3.00;;;;;;;22.73;53.38;101864.75;5009690;28;119443;-63
2022/07/23 07:22:19;;;;;;;4.82;2.63;;;;;;;22.84;53.18;101872.00;5007359;28;119716;-63
2022/07/23 07:24:46;;;;;;;5.40;3.00;;;;;;;22.97;52.87;101878.13;5007474;28;124302;-63
2022/07/23 07:27:13;;;;;;;3.22;2.42;;;;;;;23.10;52.70;101884.28;5008768;28;124394;-63
2022/07/23 07:29:40;;;;;;;3.08;2.70;;;;;;;23.23;52.51;101875.19;5007968;28;120215;-63
2022/07/23 07:32:07;;;;;;;5.07;2.85;;;;;;;23.34;52.32;101877.84;4991984;28;118230;-63
2022/07/23 07:34:34;;;;;;;4.28;2.90;;;;;;;23.44;51.71;101881.50;4991390;28;123364;-63
2022/07/23 07:37:01;;;;;;;4.70;2.75;;;;;;;23.54;51.43;101880.72;5005835;28;123710;-63
2022/07/23 07:39:29;;;;;;;5.47;2.70;;;;;;;23.64;51.32;101884.38;4990519;28;118672;-63
2022/07/23 07:41:56;;;;;;;5.43;2.30;;;;;;;23.73;50.86;101890.84;5008881;28;118569;-63
2022/07/23 07:44:23;;;;;;;4.95;2.40;;;;;;;23.81;50.32;101883.84;5007185;28;123916;-67
2022/07/23 07:46:50;;;;;;;3.40;2.22;;;;;;;23.94;50.31;101872.84;4988699;28;123550;-67
2022/07/23 07:49:19;;;;;;;6.00;2.70;;;;;;;24.05;50.22;101880.03;5007037;28;119459;-67
2022/07/23 07:51:48;;;;;;;6.22;2.47;;;;;;;24.15;49.87;101880.97;4991737;28;118072;-67
2022/07/23 07:54:15;;;;;;;4.15;2.13;;;;;;;24.25;49.50;101876.47;5008205;28;123886;-66
2022/07/23 07:56:42;;;;;;;5.05;2.45;;;;;;;24.36;49.68;101877.38;5007042;28;123772;-66
2022/07/23 07:59:11;;;;;;;4.25;2.22;;;;;;;24.46;49.16;101889.97;4989925;28;120874;-67
2022/07/23 08:01:38;;;;;;;4.35;2.50;;;;;;;24.56;48.80;101897.31;5009731;28;119982;-67
2022/07/23 08:04:05;;;;;;;4.40;2.50;;;;;;;24.63;48.85;101899.34;5006847;28;123770;-67
2022/07/23 08:06:32;;;;;;;3.33;2.40;;;;;;;24.72;48.78;101899.56;5004508;28;123790;-67
2022/07/23 08:09:00;;;;;;;4.07;2.28;;;;;;;24.79;48.22;101900.69;5006957;28;119206;-67
2022/07/23 08:11:27;;;;;;;3.20;2.20;;;;;;;24.87;47.70;101898.19;4987830;28;118652;-67
2022/07/23 08:13:54;;;;;;;3.40;2.00;;;;;;;24.93;47.58;101891.34;5003721;28;123556;-67
2022/07/23 08:16:21;;;;;;;3.28;2.30;;;;;;;24.96;47.34;101891.94;4989955;28;123601;-67
2022/07/23 08:18:49;;;;;;;5.22;2.45;;;;;;;24.99;47.00;101897.06;5006672;28;119420;-67
2022/07/23 08:21:16;;;;;;;3.70;2.55;;;;;;;25.05;46.90;101901.06;5004357;28;118736;-67
2022/07/23 08:23:43;;;;;;;3.13;2.20;;;;;;;25.08;46.47;101894.53;4990041;28;124423;-66
2022/07/23 08:26:11;;;;;;;3.28;2.40;;;;;;;25.10;46.45;101898.81;4990060;28;123071;-67
2022/07/23 08:28:38;;;;;;;3.42;2.53;;;;;;;25.13;46.39;101894.97;5007669;28;119436;-67
2022/07/23 08:31:05;;;;;;;4.43;2.45;;;;;;;25.18;46.43;101906.25;4986373;28;119044;-67
2022/07/23 08:33:33;;;;;;;3.00;2.30;;;;;;;25.23;46.22;101909.44;5004795;28;124538;-67
2022/07/23 08:36:03;;;;;;;4.85;2.58;;;;;;;25.28;46.31;101917.16;4988753;28;123938;-67
2022/07/23 08:38:32;;;;;;;3.70;2.30;;;;;;;25.32;45.89;101914.03;5007097;28;119373;-67
2022/07/23 08:40:59;;;;;;;4.07;2.53;;;;;;;25.38;46.18;101899.91;5008231;28;118766;-67
2022/07/23 08:43:30;;;;;;;4.25;2.80;;;;;;;25.45;45.84;101920.06;4986807;28;123615;-67
2022/07/23 08:45:59;;;;;;;3.80;2.67;;;;;;;25.52;46.16;101914.06;5006310;28;124298;-67
2022/07/23 08:48:29;;;;;;;3.90;2.70;;;;;;;25.58;45.42;101908.94;5005603;28;120289;-68
2022/07/23 08:51:00;;;;;;;4.03;2.70;;;;;;;25.62;45.58;101915.78;5008881;28;119728;-68
2022/07/23 08:53:29;;;;;;;3.90;2.92;;;;;;;25.67;45.21;101912.63;4989858;28;124315;-67
2022/07/23 08:56:01;;;;;;;4.45;3.20;;;;;;;25.72;44.65;101915.78;5005822;28;124287;-67
2022/07/23 08:58:29;;;;;;;4.32;2.63;;;;;;;25.73;44.48;101912.09;4987133;28;119648;-67
2022/07/23 09:00:57;;;;;;;4.68;2.70;;;;;;;25.76;44.75;101917.22;5009903;28;119313;-67
2022/07/23 09:03:36;;;;;;;4.10;2.67;;;;;;;25.78;44.65;101915.22;5005485;28;123945;-68
2022/07/23 09:06:04;;;;;;;4.85;2.78;;;;;;;25.82;44.36;101911.25;5004294;28;124530;-67
2022/07/23 09:08:41;;;;;;;3.50;2.70;;;;;;;25.86;44.83;101921.78;5005292;28;119389;-68
2022/07/23 09:11:16;;;;;;;5.55;3.00;;;;;;;25.88;44.53;101919.78;4986927;28;119310;-70
2022/07/23 09:13:54;;;;;;;4.07;3.00;;;;;;;25.93;45.06;101922.97;4987753;28;123452;-70
2022/07/23 09:16:25;;;;;;;4.47;3.15;;;;;;;26.00;44.65;101918.69;5006523;28;124451;-70
2022/07/23 09:19:04;;;;;;;4.45;3.25;;;;;;;26.05;44.68;101921.84;5003882;28;119923;-70
2022/07/23 09:21:39;;;;;;;5.63;3.60;;;;;;;26.10;44.62;101924.94;4988827;28;117907;-68
2022/07/23 09:24:07;;;;;;;4.20;3.15;;;;;;;26.13;44.28;101924.66;5001847;28;123091;-68
2022/07/23 09:26:39;;;;;;;4.25;3.40;;;;;;;26.19;43.90;101918.66;5003943;28;124531;-61
2022/07/23 09:29:24;;;;;;;5.32;3.05;;;;;;;26.20;43.75;101914.94;5004824;28;119885;-62
2022/07/23 09:31:54;;;;;;;5.53;2.95;;;;;;;26.22;43.63;101912.94;5006312;28;119363;-61
2022/07/23 09:34:38;;;;;;;3.90;2.70;;;;;;;26.19;43.56;101918.66;5005857;28;124081;-62
2022/07/23 09:37:16;;;;;;;3.85;2.90;;;;;;;26.14;43.60;101915.50;4993666;28;123938;-62
2022/07/23 09:39:46;;;;;;;3.35;2.30;;;;;;;26.11;43.76;101910.38;5005734;28;121498;-69
2022/07/23 09:42:25;;;;;;;4.68;2.60;;;;;;;26.12;43.35;101912.09;4987617;28;120043;-69
2022/07/23 09:44:55;;;;;;;3.10;2.40;;;;;;;26.13;43.15;101913.81;5001494;28;124344;-63
2022/07/23 09:47:24;;;;;;;4.05;2.55;;;;;;;26.14;42.91;101904.66;4986879;28;123747;-62
2022/07/23 09:50:04;;;;;;;3.45;2.30;;;;;;;26.16;43.31;101908.09;5007037;28;120295;-62
2022/07/23 09:52:42;;;;;;;3.47;2.50;;;;;;;26.21;42.86;101911.22;5004212;28;118051;-61
2022/07/23 09:55:10;;;;;;;5.43;2.67;;;;;;;26.23;42.84;101909.19;5011719;28;126462;-62
2022/07/23 09:57:40;;;;;;;3.03;2.40;;;;;;;26.29;43.13;101915.06;4987218;28;124944;-62
2022/07/23 10:00:10;;;;;;;5.68;2.60;;;;;;;26.35;43.20;101911.75;4990811;28;118361;-62
2022/07/23 10:02:39;;;;;;;4.68;2.67;;;;;;;26.45;43.47;101912.59;5007744;28;119154;-62
2022/07/23 10:05:25;;;;;;;3.85;3.10;;;;;;;26.52;43.15;101912.84;4993147;28;124593;-62
2022/07/23 10:08:19;;;;;;;3.33;2.55;;;;;;;26.61;43.00;101910.13;5002180;28;124954;-62
2022/07/23 10:11:06;;;;;;;3.55;2.50;;;;;;;26.74;43.08;101911.66;5008874;28;120852;-62
2022/07/23 10:14:02;;;;;;;3.83;2.75;;;;;;;26.83;42.86;101908.06;5005466;28;119562;-62
2022/07/23 10:16:52;;;;;;;3.20;2.10;;;;;;;26.87;42.92;101911.34;4989273;28;123503;-63
2022/07/23 10:19:21;;;;;;;3.58;2.38;;;;;;;26.92;42.21;101912.59;5005513;28;123969;-61
2022/07/23 10:21:54;;;;;;;3.65;2.85;;;;;;;27.00;42.14;101906.41;4985318;28;119439;-61
2022/07/23 10:24:27;;;;;;;3.08;2.40;;;;;;;27.07;42.41;101903.91;4990257;28;118654;-61
2022/07/23 10:27:09;;;;;;;4.22;2.90;;;;;;;27.17;42.64;101907.47;5005710;28;123973;-61
2022/07/23 10:30:01;;;;;;;8.20;3.83;;;;;;;27.28;42.44;101910.00;4996362;28;123661;-61
2022/07/23 10:32:45;;;;;;;3.38;2.58;;;;;;;27.33;41.87;101907.69;4980844;28;120913;-61
2022/07/23 10:35:25;;;;;;;5.40;2.70;;;;;;;27.38;41.70;101899.88;5006745;28;120054;-61
2022/07/23 10:38:20;;;;;;;5.15;3.20;;;;;;;27.44;41.54;101908.47;5004533;28;124816;-63
2022/07/23 10:40:59;;;;;;;4.65;2.60;;;;;;;27.48;41.58;101905.28;4991219;28;124214;-61
2022/07/23 10:43:27;;;;;;;6.20;2.83;;;;;;;27.50;41.22;101907.81;4971763;28;118061;-61
2022/07/23 10:45:55;;;;;;;4.40;2.90;;;;;;;27.49;40.62;101906.13;5000946;28;119241;-61
2022/07/23 10:48:26;;;;;;;4.15;2.75;;;;;;;27.49;40.83;101901.53;5007032;28;123941;-62
2022/07/23 10:51:12;;;;;;;4.43;2.97;;;;;;;27.53;40.70;101902.09;5011624;28;123501;-61
2022/07/23 10:53:55;;;;;;;2.72;1.90;;;;;;;27.59;39.92;101901.47;4990821;28;119927;-61
2022/07/23 10:57:06;;;;;;;3.20;2.10;;;;;;;27.60;39.86;101903.19;4996404;28;119270;-61
2022/07/23 11:00:06;;;;;;;4.28;2.38;;;;;;;27.57;40.01;101908.94;5007985;28;127806;-61
2022/07/23 11:02:35;;;;;;;4.38;2.85;;;;;;;27.62;40.19;101892.16;5005159;28;124727;-61
2022/07/23 11:05:14;;;;;;;5.78;3.13;;;;;;;27.65;40.15;101899.97;5008436;28;119927;-65
2022/07/23 11:08:04;;;;;;;3.88;2.55;;;;;;;27.71;40.75;101894.78;4975976;28;118574;-65
2022/07/23 11:11:01;;;;;;;4.05;2.40;;;;;;;27.81;40.48;101893.84;4991834;28;123553;-65
2022/07/23 11:13:28;;;;;;;3.38;2.30;;;;;;;27.90;39.96;101903.84;4977925;28;123807;-65
2022/07/23 11:16:02;;;;;;;3.28;2.40;;;;;;;27.96;39.83;101897.75;5007449;28;119672;-65
2022/07/23 11:18:46;;;;;;;3.88;2.28;;;;;;;28.01;39.63;101906.31;5008598;28;118835;-65
2022/07/23 11:21:41;;;;;;;3.58;2.58;;;;;;;28.05;39.48;101901.38;4996540;28;123987;-65
2022/07/23 11:24:14;;;;;;;3.73;2.40;;;;;;;28.03;39.78;101896.09;5003671;28;124592;-65
2022/07/23 11:26:56;;;;;;;2.97;2.42;;;;;;;28.10;39.91;101896.31;5004667;28;121068;-65
2022/07/23 11:29:36;;;;;;;4.82;3.05;;;;;;;28.19;39.18;101902.69;4989811;28;120283;-65
2022/07/23 11:32:03;;;;;;;3.97;2.67;;;;;;;28.25;39.61;101893.88;5006348;28;124410;-61